sensor_id;sensor_type;location;lat;lon;timestamp;P1;durP1;ratioP1;P2;durP2;ratioP2
66179;SDS011;52986;44.028;20.466;2023-04-07T00:00:21;72.00;;;29.85;;
66179;SDS011;52986;44.028;20.466;2023-04-07T00:02:46;64.53;;;28.25;;
66179;SDS011;52986;44.028;20.466;2023-04-07T00:05:12;62.60;;;25.75;;
66179;SDS011;52986;44.028;20.466;2023-04-07T00:07:38;54.67;;;23.02;;
66179;SDS011;52986;44.028;20.466;2023-04-07T00:10:03;55.67;;;23.77;;
66179;SDS011;52986;44.028;20.466;2023-04-07T00:12:29;53.42;;;23.05;;
66179;SDS011;52986;44.028;20.466;2023-04-07T00:14:55;55.13;;;23.42;;
66179;SDS011;52986;44.028;20.466;2023-04-07T00:17:20;56.67;;;24.17;;
66179;SDS011;52986;44.028;20.466;2023-04-07T00:19:45;55.88;;;23.38;;
66179;SDS011;52986;44.028;20.466;2023-04-07T00:22:11;58.10;;;24.50;;
66179;SDS011;52986;44.028;20.466;2023-04-07T00:24:36;61.33;;;25.35;;
66179;SDS011;52986;44.028;20.466;2023-04-07T00:27:02;63.60;;;26.27;;
66179;SDS011;52986;44.028;20.466;2023-04-07T00:29:27;61.20;;;26.85;;
66179;SDS011;52986;44.028;20.466;2023-04-07T00:31:53;61.40;;;26.17;;
66179;SDS011;52986;44.028;20.466;2023-04-07T00:34:18;57.90;;;24.88;;
66179;SDS011;52986;44.028;20.466;2023-04-07T00:36:43;58.03;;;24.55;;
66179;SDS011;52986;44.028;20.466;2023-04-07T00:41:41;55.53;;;23.03;;
66179;SDS011;52986;44.028;20.466;2023-04-07T00:44:06;52.43;;;22.10;;
66179;SDS011;52986;44.028;20.466;2023-04-07T00:46:32;48.05;;;21.27;;
66179;SDS011;52986;44.028;20.466;2023-04-07T00:48:57;63.60;;;25.45;;
66179;SDS011;52986;44.028;20.466;2023-04-07T00:51:22;68.45;;;31.48;;
66179;SDS011;52986;44.028;20.466;2023-04-07T00:53:48;86.28;;;37.20;;
66179;SDS011;52986;44.028;20.466;2023-04-07T00:56:14;83.95;;;36.08;;
66179;SDS011;52986;44.028;20.466;2023-04-07T00:58:39;55.33;;;24.17;;
66179;SDS011;52986;44.028;20.466;2023-04-07T01:01:09;53.70;;;23.35;;
66179;SDS011;52986;44.028;20.466;2023-04-07T01:03:44;55.45;;;22.77;;
66179;SDS011;52986;44.028;20.466;2023-04-07T01:06:16;54.28;;;24.52;;
66179;SDS011;52986;44.028;20.466;2023-04-07T01:08:52;57.33;;;25.08;;
66179;SDS011;52986;44.028;20.466;2023-04-07T01:11:23;57.58;;;24.65;;
66179;SDS011;52986;44.028;20.466;2023-04-07T01:14:09;56.75;;;24.33;;
66179;SDS011;52986;44.028;20.466;2023-04-07T01:19:31;63.65;;;27.50;;
66179;SDS011;52986;44.028;20.466;2023-04-07T01:21:58;54.22;;;22.38;;
66179;SDS011;52986;44.028;20.466;2023-04-07T01:30:09;42.38;;;17.45;;
66179;SDS011;52986;44.028;20.466;2023-04-07T01:32:36;40.15;;;17.75;;
66179;SDS011;52986;44.028;20.466;2023-04-07T01:35:04;43.75;;;18.55;;
66179;SDS011;52986;44.028;20.466;2023-04-07T01:37:34;43.47;;;19.45;;
66179;SDS011;52986;44.028;20.466;2023-04-07T01:40:01;43.95;;;19.58;;
66179;SDS011;52986;44.028;20.466;2023-04-07T01:42:28;44.67;;;20.02;;
66179;SDS011;52986;44.028;20.466;2023-04-07T01:44:55;42.53;;;19.02;;
66179;SDS011;52986;44.028;20.466;2023-04-07T01:47:22;41.30;;;18.25;;
66179;SDS011;52986;44.028;20.466;2023-04-07T01:49:47;38.72;;;17.08;;
66179;SDS011;52986;44.028;20.466;2023-04-07T01:52:13;39.47;;;17.65;;
66179;SDS011;52986;44.028;20.466;2023-04-07T01:54:39;35.10;;;16.52;;
66179;SDS011;52986;44.028;20.466;2023-04-07T01:57:05;33.17;;;15.25;;
66179;SDS011;52986;44.028;20.466;2023-04-07T01:59:30;34.45;;;15.65;;
66179;SDS011;52986;44.028;20.466;2023-04-07T02:01:56;33.53;;;15.13;;
66179;SDS011;52986;44.028;20.466;2023-04-07T02:04:30;38.38;;;16.48;;
66179;SDS011;52986;44.028;20.466;2023-04-07T02:06:58;35.75;;;15.95;;
66179;SDS011;52986;44.028;20.466;2023-04-07T02:09:27;36.67;;;15.85;;
66179;SDS011;52986;44.028;20.466;2023-04-07T02:11:55;34.92;;;16.15;;
66179;SDS011;52986;44.028;20.466;2023-04-07T02:14:23;35.95;;;15.85;;
66179;SDS011;52986;44.028;20.466;2023-04-07T02:16:49;36.60;;;16.73;;
66179;SDS011;52986;44.028;20.466;2023-04-07T02:19:16;37.55;;;17.08;;
66179;SDS011;52986;44.028;20.466;2023-04-07T02:21:42;37.47;;;17.58;;
66179;SDS011;52986;44.028;20.466;2023-04-07T02:24:10;45.03;;;19.90;;
66179;SDS011;52986;44.028;20.466;2023-04-07T02:26:36;44.38;;;20.73;;
66179;SDS011;52986;44.028;20.466;2023-04-07T02:29:05;41.63;;;19.17;;
66179;SDS011;52986;44.028;20.466;2023-04-07T02:31:30;44.65;;;20.33;;
66179;SDS011;52986;44.028;20.466;2023-04-07T02:33:56;44.17;;;20.02;;
66179;SDS011;52986;44.028;20.466;2023-04-07T02:36:21;44.13;;;20.52;;
66179;SDS011;52986;44.028;20.466;2023-04-07T02:38:47;44.67;;;20.23;;
66179;SDS011;52986;44.028;20.466;2023-04-07T02:41:12;46.53;;;19.50;;
66179;SDS011;52986;44.028;20.466;2023-04-07T02:43:38;37.70;;;16.98;;
66179;SDS011;52986;44.028;20.466;2023-04-07T02:46:03;38.70;;;16.98;;
66179;SDS011;52986;44.028;20.466;2023-04-07T02:48:28;36.53;;;15.77;;
66179;SDS011;52986;44.028;20.466;2023-04-07T02:50:54;32.75;;;15.02;;
66179;SDS011;52986;44.028;20.466;2023-04-07T02:53:20;31.73;;;14.05;;
66179;SDS011;52986;44.028;20.466;2023-04-07T02:55:45;29.70;;;13.23;;
66179;SDS011;52986;44.028;20.466;2023-04-07T02:58:11;40.17;;;17.25;;
66179;SDS011;52986;44.028;20.466;2023-04-07T03:00:36;44.15;;;18.65;;
66179;SDS011;52986;44.028;20.466;2023-04-07T03:03:01;44.65;;;18.73;;
66179;SDS011;52986;44.028;20.466;2023-04-07T03:05:27;44.17;;;18.95;;
66179;SDS011;52986;44.028;20.466;2023-04-07T03:07:52;42.95;;;18.83;;
66179;SDS011;52986;44.028;20.466;2023-04-07T03:10:17;43.00;;;19.23;;
66179;SDS011;52986;44.028;20.466;2023-04-07T03:12:43;45.92;;;19.55;;
66179;SDS011;52986;44.028;20.466;2023-04-07T03:15:08;43.53;;;19.40;;
66179;SDS011;52986;44.028;20.466;2023-04-07T03:17:34;42.47;;;18.92;;
66179;SDS011;52986;44.028;20.466;2023-04-07T03:20:00;37.83;;;17.92;;
66179;SDS011;52986;44.028;20.466;2023-04-07T03:22:25;39.92;;;17.80;;
66179;SDS011;52986;44.028;20.466;2023-04-07T03:24:50;37.60;;;16.45;;
66179;SDS011;52986;44.028;20.466;2023-04-07T03:27:16;39.83;;;17.20;;
66179;SDS011;52986;44.028;20.466;2023-04-07T03:29:42;38.13;;;16.40;;
66179;SDS011;52986;44.028;20.466;2023-04-07T03:32:07;36.45;;;16.02;;
66179;SDS011;52986;44.028;20.466;2023-04-07T03:34:33;36.83;;;15.15;;
66179;SDS011;52986;44.028;20.466;2023-04-07T03:36:58;35.28;;;15.57;;
66179;SDS011;52986;44.028;20.466;2023-04-07T03:39:24;36.70;;;15.65;;
66179;SDS011;52986;44.028;20.466;2023-04-07T03:41:49;36.33;;;15.68;;
66179;SDS011;52986;44.028;20.466;2023-04-07T03:44:15;39.08;;;16.73;;
66179;SDS011;52986;44.028;20.466;2023-04-07T03:46:41;39.70;;;16.80;;
66179;SDS011;52986;44.028;20.466;2023-04-07T03:49:06;37.03;;;16.50;;
66179;SDS011;52986;44.028;20.466;2023-04-07T03:51:32;37.20;;;15.60;;
66179;SDS011;52986;44.028;20.466;2023-04-07T03:53:58;40.75;;;16.80;;
66179;SDS011;52986;44.028;20.466;2023-04-07T03:56:23;38.22;;;16.80;;
66179;SDS011;52986;44.028;20.466;2023-04-07T03:58:49;40.65;;;17.52;;
66179;SDS011;52986;44.028;20.466;2023-04-07T04:01:14;45.05;;;18.45;;
66179;SDS011;52986;44.028;20.466;2023-04-07T04:03:41;45.53;;;18.95;;
66179;SDS011;52986;44.028;20.466;2023-04-07T04:06:06;42.38;;;17.92;;
66179;SDS011;52986;44.028;20.466;2023-04-07T04:08:31;45.67;;;18.73;;
66179;SDS011;52986;44.028;20.466;2023-04-07T04:10:57;49.10;;;18.60;;
66179;SDS011;52986;44.028;20.466;2023-04-07T04:13:22;37.47;;;16.88;;
66179;SDS011;52986;44.028;20.466;2023-04-07T04:15:48;36.45;;;16.45;;
66179;SDS011;52986;44.028;20.466;2023-04-07T04:18:13;36.65;;;15.95;;
66179;SDS011;52986;44.028;20.466;2023-04-07T04:20:38;39.78;;;15.75;;
66179;SDS011;52986;44.028;20.466;2023-04-07T04:23:04;34.90;;;16.10;;
66179;SDS011;52986;44.028;20.466;2023-04-07T04:25:29;41.53;;;16.98;;
66179;SDS011;52986;44.028;20.466;2023-04-07T04:27:55;41.58;;;16.42;;
66179;SDS011;52986;44.028;20.466;2023-04-07T04:30:20;41.88;;;17.27;;
66179;SDS011;52986;44.028;20.466;2023-04-07T04:32:46;47.80;;;19.73;;
66179;SDS011;52986;44.028;20.466;2023-04-07T04:35:11;44.50;;;19.30;;
66179;SDS011;52986;44.028;20.466;2023-04-07T04:37:37;49.47;;;18.92;;
66179;SDS011;52986;44.028;20.466;2023-04-07T04:40:02;41.78;;;17.58;;
66179;SDS011;52986;44.028;20.466;2023-04-07T04:42:28;38.80;;;17.02;;
66179;SDS011;52986;44.028;20.466;2023-04-07T04:44:55;34.67;;;14.95;;
66179;SDS011;52986;44.028;20.466;2023-04-07T04:47:21;40.55;;;18.20;;
66179;SDS011;52986;44.028;20.466;2023-04-07T04:49:46;40.20;;;16.65;;
66179;SDS011;52986;44.028;20.466;2023-04-07T04:52:11;34.38;;;15.65;;
66179;SDS011;52986;44.028;20.466;2023-04-07T04:54:37;43.30;;;18.25;;
66179;SDS011;52986;44.028;20.466;2023-04-07T04:57:02;51.03;;;21.40;;
66179;SDS011;52986;44.028;20.466;2023-04-07T04:59:28;92.72;;;47.60;;
66179;SDS011;52986;44.028;20.466;2023-04-07T05:01:53;65.22;;;30.15;;
66179;SDS011;52986;44.028;20.466;2023-04-07T05:04:18;55.60;;;23.77;;
66179;SDS011;52986;44.028;20.466;2023-04-07T05:06:44;54.75;;;23.73;;
66179;SDS011;52986;44.028;20.466;2023-04-07T05:09:09;56.67;;;25.63;;
66179;SDS011;52986;44.028;20.466;2023-04-07T05:11:35;54.08;;;24.10;;
66179;SDS011;52986;44.028;20.466;2023-04-07T05:14:00;53.30;;;23.45;;
66179;SDS011;52986;44.028;20.466;2023-04-07T05:16:25;54.35;;;23.27;;
66179;SDS011;52986;44.028;20.466;2023-04-07T05:18:51;55.25;;;24.08;;
66179;SDS011;52986;44.028;20.466;2023-04-07T05:21:16;56.72;;;23.42;;
66179;SDS011;52986;44.028;20.466;2023-04-07T05:23:44;63.38;;;26.95;;
66179;SDS011;52986;44.028;20.466;2023-04-07T05:26:10;58.60;;;25.02;;
66179;SDS011;52986;44.028;20.466;2023-04-07T05:28:35;62.63;;;26.70;;
66179;SDS011;52986;44.028;20.466;2023-04-07T05:31:00;59.15;;;24.35;;
66179;SDS011;52986;44.028;20.466;2023-04-07T05:33:26;42.65;;;20.02;;
66179;SDS011;52986;44.028;20.466;2023-04-07T05:35:51;34.97;;;16.10;;
66179;SDS011;52986;44.028;20.466;2023-04-07T05:38:16;36.63;;;15.60;;
66179;SDS011;52986;44.028;20.466;2023-04-07T05:40:42;36.05;;;15.20;;
66179;SDS011;52986;44.028;20.466;2023-04-07T05:43:07;30.33;;;14.13;;
66179;SDS011;52986;44.028;20.466;2023-04-07T05:45:33;29.13;;;14.40;;
66179;SDS011;52986;44.028;20.466;2023-04-07T05:47:58;32.40;;;14.80;;
66179;SDS011;52986;44.028;20.466;2023-04-07T05:50:23;29.05;;;12.25;;
66179;SDS011;52986;44.028;20.466;2023-04-07T05:52:49;29.13;;;14.13;;
66179;SDS011;52986;44.028;20.466;2023-04-07T05:55:14;30.55;;;12.88;;
66179;SDS011;52986;44.028;20.466;2023-04-07T05:57:40;26.98;;;11.85;;
66179;SDS011;52986;44.028;20.466;2023-04-07T06:00:06;27.45;;;11.15;;
66179;SDS011;52986;44.028;20.466;2023-04-07T06:02:32;27.70;;;12.15;;
66179;SDS011;52986;44.028;20.466;2023-04-07T06:04:57;27.92;;;12.43;;
66179;SDS011;52986;44.028;20.466;2023-04-07T06:07:23;27.55;;;11.43;;
66179;SDS011;52986;44.028;20.466;2023-04-07T06:09:48;30.92;;;12.70;;
66179;SDS011;52986;44.028;20.466;2023-04-07T06:12:14;29.38;;;12.32;;
66179;SDS011;52986;44.028;20.466;2023-04-07T06:14:41;24.20;;;10.88;;
66179;SDS011;52986;44.028;20.466;2023-04-07T06:17:06;26.80;;;11.15;;
66179;SDS011;52986;44.028;20.466;2023-04-07T06:19:32;27.13;;;12.88;;
66179;SDS011;52986;44.028;20.466;2023-04-07T06:21:57;32.85;;;14.18;;
66179;SDS011;52986;44.028;20.466;2023-04-07T06:24:23;35.20;;;14.18;;
66179;SDS011;52986;44.028;20.466;2023-04-07T06:26:49;34.38;;;13.65;;
66179;SDS011;52986;44.028;20.466;2023-04-07T06:29:15;31.15;;;13.85;;
66179;SDS011;52986;44.028;20.466;2023-04-07T06:31:41;28.77;;;14.30;;
66179;SDS011;52986;44.028;20.466;2023-04-07T06:34:06;28.48;;;13.32;;
66179;SDS011;52986;44.028;20.466;2023-04-07T06:36:32;27.73;;;12.40;;
66179;SDS011;52986;44.028;20.466;2023-04-07T06:38:57;30.35;;;15.68;;
66179;SDS011;52986;44.028;20.466;2023-04-07T06:41:23;24.42;;;12.30;;
66179;SDS011;52986;44.028;20.466;2023-04-07T06:43:48;27.50;;;12.15;;
66179;SDS011;52986;44.028;20.466;2023-04-07T06:46:17;28.17;;;11.85;;
66179;SDS011;52986;44.028;20.466;2023-04-07T06:48:43;24.15;;;11.45;;
66179;SDS011;52986;44.028;20.466;2023-04-07T06:51:09;26.63;;;12.25;;
66179;SDS011;52986;44.028;20.466;2023-04-07T06:53:35;21.85;;;10.80;;
66179;SDS011;52986;44.028;20.466;2023-04-07T06:56:07;24.67;;;11.60;;
66179;SDS011;52986;44.028;20.466;2023-04-07T06:58:34;26.85;;;13.27;;
66179;SDS011;52986;44.028;20.466;2023-04-07T07:01:01;24.98;;;12.02;;
66179;SDS011;52986;44.028;20.466;2023-04-07T07:03:28;28.50;;;13.15;;
66179;SDS011;52986;44.028;20.466;2023-04-07T07:05:54;27.73;;;13.82;;
66179;SDS011;52986;44.028;20.466;2023-04-07T07:08:23;28.40;;;14.43;;
66179;SDS011;52986;44.028;20.466;2023-04-07T07:10:49;29.00;;;13.80;;
66179;SDS011;52986;44.028;20.466;2023-04-07T07:13:14;27.05;;;13.82;;
66179;SDS011;52986;44.028;20.466;2023-04-07T07:15:40;30.63;;;14.85;;
66179;SDS011;52986;44.028;20.466;2023-04-07T07:18:06;36.05;;;15.95;;
66179;SDS011;52986;44.028;20.466;2023-04-07T07:20:31;29.13;;;14.95;;
66179;SDS011;52986;44.028;20.466;2023-04-07T07:22:56;35.30;;;15.43;;
66179;SDS011;52986;44.028;20.466;2023-04-07T07:25:22;32.13;;;14.60;;
66179;SDS011;52986;44.028;20.466;2023-04-07T07:27:50;28.73;;;13.93;;
66179;SDS011;52986;44.028;20.466;2023-04-07T07:30:17;27.25;;;13.55;;
66179;SDS011;52986;44.028;20.466;2023-04-07T07:32:46;26.63;;;12.05;;
66179;SDS011;52986;44.028;20.466;2023-04-07T07:35:11;24.52;;;12.10;;
66179;SDS011;52986;44.028;20.466;2023-04-07T07:37:37;23.27;;;11.77;;
66179;SDS011;52986;44.028;20.466;2023-04-07T07:40:02;26.77;;;12.30;;
66179;SDS011;52986;44.028;20.466;2023-04-07T07:42:28;32.47;;;14.65;;
66179;SDS011;52986;44.028;20.466;2023-04-07T07:44:55;35.05;;;16.63;;
66179;SDS011;52986;44.028;20.466;2023-04-07T07:47:20;28.02;;;13.43;;
66179;SDS011;52986;44.028;20.466;2023-04-07T07:49:46;27.25;;;13.25;;
66179;SDS011;52986;44.028;20.466;2023-04-07T07:52:12;27.33;;;13.35;;
66179;SDS011;52986;44.028;20.466;2023-04-07T07:54:37;29.92;;;13.18;;
66179;SDS011;52986;44.028;20.466;2023-04-07T07:57:02;29.58;;;14.07;;
66179;SDS011;52986;44.028;20.466;2023-04-07T07:59:28;25.20;;;13.05;;
66179;SDS011;52986;44.028;20.466;2023-04-07T08:01:55;25.38;;;12.52;;
66179;SDS011;52986;44.028;20.466;2023-04-07T08:04:20;25.38;;;12.05;;
66179;SDS011;52986;44.028;20.466;2023-04-07T08:06:47;24.05;;;11.32;;
66179;SDS011;52986;44.028;20.466;2023-04-07T08:09:13;23.67;;;11.23;;
66179;SDS011;52986;44.028;20.466;2023-04-07T08:11:39;28.13;;;13.70;;
66179;SDS011;52986;44.028;20.466;2023-04-07T08:14:05;25.48;;;12.32;;
66179;SDS011;52986;44.028;20.466;2023-04-07T08:16:31;23.73;;;11.45;;
66179;SDS011;52986;44.028;20.466;2023-04-07T08:18:56;24.70;;;11.88;;
66179;SDS011;52986;44.028;20.466;2023-04-07T08:21:22;25.13;;;11.20;;
66179;SDS011;52986;44.028;20.466;2023-04-07T08:23:47;24.60;;;11.73;;
66179;SDS011;52986;44.028;20.466;2023-04-07T08:26:13;29.77;;;13.73;;
66179;SDS011;52986;44.028;20.466;2023-04-07T08:28:38;31.88;;;15.13;;
66179;SDS011;52986;44.028;20.466;2023-04-07T08:31:03;34.45;;;16.60;;
66179;SDS011;52986;44.028;20.466;2023-04-07T08:33:29;35.28;;;17.83;;
66179;SDS011;52986;44.028;20.466;2023-04-07T08:35:55;39.88;;;18.95;;
66179;SDS011;52986;44.028;20.466;2023-04-07T08:38:20;41.20;;;19.58;;
66179;SDS011;52986;44.028;20.466;2023-04-07T08:40:47;42.08;;;17.70;;
66179;SDS011;52986;44.028;20.466;2023-04-07T08:43:18;33.33;;;15.93;;
66179;SDS011;52986;44.028;20.466;2023-04-07T08:45:45;28.65;;;12.85;;
66179;SDS011;52986;44.028;20.466;2023-04-07T08:48:15;27.05;;;12.02;;
66179;SDS011;52986;44.028;20.466;2023-04-07T08:50:45;26.05;;;11.60;;
66179;SDS011;52986;44.028;20.466;2023-04-07T08:53:13;24.95;;;11.45;;
66179;SDS011;52986;44.028;20.466;2023-04-07T08:55:42;21.70;;;10.80;;
66179;SDS011;52986;44.028;20.466;2023-04-07T08:58:08;23.23;;;10.52;;
66179;SDS011;52986;44.028;20.466;2023-04-07T09:00:37;20.85;;;10.40;;
66179;SDS011;52986;44.028;20.466;2023-04-07T09:03:05;22.67;;;10.75;;
66179;SDS011;52986;44.028;20.466;2023-04-07T09:05:32;21.38;;;10.65;;
66179;SDS011;52986;44.028;20.466;2023-04-07T09:07:59;22.52;;;10.65;;
66179;SDS011;52986;44.028;20.466;2023-04-07T09:10:24;22.42;;;10.57;;
66179;SDS011;52986;44.028;20.466;2023-04-07T09:12:50;23.05;;;11.07;;
66179;SDS011;52986;44.028;20.466;2023-04-07T09:15:15;23.05;;;10.80;;
66179;SDS011;52986;44.028;20.466;2023-04-07T09:17:41;25.38;;;11.55;;
66179;SDS011;52986;44.028;20.466;2023-04-07T09:20:06;25.85;;;11.52;;
66179;SDS011;52986;44.028;20.466;2023-04-07T09:22:36;26.50;;;10.60;;
66179;SDS011;52986;44.028;20.466;2023-04-07T09:27:54;22.35;;;11.05;;
66179;SDS011;52986;44.028;20.466;2023-04-07T09:30:22;21.75;;;10.00;;
66179;SDS011;52986;44.028;20.466;2023-04-07T09:32:47;19.25;;;9.93;;
66179;SDS011;52986;44.028;20.466;2023-04-07T09:35:12;27.05;;;12.35;;
66179;SDS011;52986;44.028;20.466;2023-04-07T09:37:38;24.70;;;11.38;;
66179;SDS011;52986;44.028;20.466;2023-04-07T09:40:03;26.67;;;12.50;;
66179;SDS011;52986;44.028;20.466;2023-04-07T09:42:30;25.05;;;11.90;;
66179;SDS011;52986;44.028;20.466;2023-04-07T09:44:59;22.58;;;11.70;;
66179;SDS011;52986;44.028;20.466;2023-04-07T09:47:28;26.80;;;11.45;;
66179;SDS011;52986;44.028;20.466;2023-04-07T09:49:55;22.95;;;11.82;;
66179;SDS011;52986;44.028;20.466;2023-04-07T09:55:14;27.02;;;14.38;;
66179;SDS011;52986;44.028;20.466;2023-04-07T09:57:41;26.45;;;13.75;;
66179;SDS011;52986;44.028;20.466;2023-04-07T10:00:08;25.70;;;11.98;;
66179;SDS011;52986;44.028;20.466;2023-04-07T10:02:34;21.55;;;10.88;;
66179;SDS011;52986;44.028;20.466;2023-04-07T10:05:00;24.02;;;12.05;;
66179;SDS011;52986;44.028;20.466;2023-04-07T10:07:26;19.42;;;10.60;;
66179;SDS011;52986;44.028;20.466;2023-04-07T10:09:52;21.80;;;10.65;;
66179;SDS011;52986;44.028;20.466;2023-04-07T10:12:17;19.90;;;9.93;;
66179;SDS011;52986;44.028;20.466;2023-04-07T10:14:43;21.55;;;10.57;;
66179;SDS011;52986;44.028;20.466;2023-04-07T10:17:11;23.63;;;11.60;;
66179;SDS011;52986;44.028;20.466;2023-04-07T10:22:08;25.25;;;11.80;;
66179;SDS011;52986;44.028;20.466;2023-04-07T10:27:21;27.95;;;13.00;;
66179;SDS011;52986;44.028;20.466;2023-04-07T10:29:55;21.35;;;10.93;;
66179;SDS011;52986;44.028;20.466;2023-04-07T10:32:22;20.58;;;10.70;;
66179;SDS011;52986;44.028;20.466;2023-04-07T10:37:19;23.83;;;11.05;;
66179;SDS011;52986;44.028;20.466;2023-04-07T10:39:46;20.80;;;11.45;;
66179;SDS011;52986;44.028;20.466;2023-04-07T10:45:04;24.95;;;12.52;;
66179;SDS011;52986;44.028;20.466;2023-04-07T10:47:30;24.20;;;12.32;;
66179;SDS011;52986;44.028;20.466;2023-04-07T10:52:36;26.10;;;13.23;;
66179;SDS011;52986;44.028;20.466;2023-04-07T11:03:39;24.92;;;12.98;;
66179;SDS011;52986;44.028;20.466;2023-04-07T11:08:33;25.15;;;12.45;;
66179;SDS011;52986;44.028;20.466;2023-04-07T11:11:09;23.30;;;12.07;;
66179;SDS011;52986;44.028;20.466;2023-04-07T11:13:46;26.83;;;13.80;;
66179;SDS011;52986;44.028;20.466;2023-04-07T11:16:13;27.83;;;13.50;;
66179;SDS011;52986;44.028;20.466;2023-04-07T11:18:39;28.52;;;12.68;;
66179;SDS011;52986;44.028;20.466;2023-04-07T11:21:06;27.55;;;13.60;;
66179;SDS011;52986;44.028;20.466;2023-04-07T11:26:08;28.90;;;14.73;;
66179;SDS011;52986;44.028;20.466;2023-04-07T11:28:44;29.88;;;14.75;;
66179;SDS011;52986;44.028;20.466;2023-04-07T11:31:11;28.05;;;13.80;;
66179;SDS011;52986;44.028;20.466;2023-04-07T11:33:36;26.88;;;13.35;;
66179;SDS011;52986;44.028;20.466;2023-04-07T11:36:05;28.83;;;14.13;;
66179;SDS011;52986;44.028;20.466;2023-04-07T11:38:34;32.88;;;15.95;;
66179;SDS011;52986;44.028;20.466;2023-04-07T11:41:11;31.38;;;15.85;;
66179;SDS011;52986;44.028;20.466;2023-04-07T11:43:38;34.03;;;16.98;;
66179;SDS011;52986;44.028;20.466;2023-04-07T11:46:13;35.72;;;17.48;;
66179;SDS011;52986;44.028;20.466;2023-04-07T11:48:40;33.70;;;17.70;;
66179;SDS011;52986;44.028;20.466;2023-04-07T11:51:20;34.55;;;16.70;;
66179;SDS011;52986;44.028;20.466;2023-04-07T11:53:55;35.05;;;16.88;;
66179;SDS011;52986;44.028;20.466;2023-04-07T11:56:21;31.90;;;16.42;;
66179;SDS011;52986;44.028;20.466;2023-04-07T11:58:50;30.90;;;15.15;;
66179;SDS011;52986;44.028;20.466;2023-04-07T12:01:17;34.50;;;16.80;;
66179;SDS011;52986;44.028;20.466;2023-04-07T12:03:59;34.50;;;16.17;;
66179;SDS011;52986;44.028;20.466;2023-04-07T12:06:27;28.55;;;14.68;;
66179;SDS011;52986;44.028;20.466;2023-04-07T12:08:57;30.77;;;15.25;;
66179;SDS011;52986;44.028;20.466;2023-04-07T12:11:22;41.80;;;16.90;;
66179;SDS011;52986;44.028;20.466;2023-04-07T12:13:49;32.72;;;15.55;;
66179;SDS011;52986;44.028;20.466;2023-04-07T12:16:14;30.63;;;15.45;;
66179;SDS011;52986;44.028;20.466;2023-04-07T12:18:46;34.08;;;14.02;;
66179;SDS011;52986;44.028;20.466;2023-04-07T12:21:31;30.10;;;14.80;;
66179;SDS011;52986;44.028;20.466;2023-04-07T12:23:57;33.67;;;16.27;;
66179;SDS011;52986;44.028;20.466;2023-04-07T12:26:22;30.50;;;15.85;;
66179;SDS011;52986;44.028;20.466;2023-04-07T12:28:49;28.23;;;14.70;;
66179;SDS011;52986;44.028;20.466;2023-04-07T12:31:14;32.67;;;15.32;;
66179;SDS011;52986;44.028;20.466;2023-04-07T12:33:40;32.55;;;16.67;;
66179;SDS011;52986;44.028;20.466;2023-04-07T12:36:06;32.80;;;15.43;;
66179;SDS011;52986;44.028;20.466;2023-04-07T12:38:32;33.72;;;16.73;;
66179;SDS011;52986;44.028;20.466;2023-04-07T12:40:57;44.58;;;20.38;;
66179;SDS011;52986;44.028;20.466;2023-04-07T12:43:27;35.22;;;17.33;;
66179;SDS011;52986;44.028;20.466;2023-04-07T12:45:54;46.60;;;21.25;;
66179;SDS011;52986;44.028;20.466;2023-04-07T12:48:19;35.65;;;18.05;;
66179;SDS011;52986;44.028;20.466;2023-04-07T12:50:45;37.30;;;19.20;;
66179;SDS011;52986;44.028;20.466;2023-04-07T12:53:10;34.50;;;18.02;;
66179;SDS011;52986;44.028;20.466;2023-04-07T12:55:36;34.80;;;16.73;;
66179;SDS011;52986;44.028;20.466;2023-04-07T12:58:01;43.22;;;20.10;;
66179;SDS011;52986;44.028;20.466;2023-04-07T13:00:27;31.08;;;16.10;;
66179;SDS011;52986;44.028;20.466;2023-04-07T13:02:52;31.52;;;15.88;;
66179;SDS011;52986;44.028;20.466;2023-04-07T13:05:18;29.35;;;14.95;;
66179;SDS011;52986;44.028;20.466;2023-04-07T13:07:43;32.00;;;16.35;;
66179;SDS011;52986;44.028;20.466;2023-04-07T13:10:09;36.13;;;16.73;;
66179;SDS011;52986;44.028;20.466;2023-04-07T13:12:35;32.90;;;16.13;;
66179;SDS011;52986;44.028;20.466;2023-04-07T13:15:01;33.90;;;18.20;;
66179;SDS011;52986;44.028;20.466;2023-04-07T13:17:26;29.15;;;15.82;;
66179;SDS011;52986;44.028;20.466;2023-04-07T13:19:52;38.65;;;18.05;;
66179;SDS011;52986;44.028;20.466;2023-04-07T13:22:18;36.70;;;17.60;;
66179;SDS011;52986;44.028;20.466;2023-04-07T13:24:44;34.92;;;16.13;;
66179;SDS011;52986;44.028;20.466;2023-04-07T13:27:09;30.20;;;15.48;;
66179;SDS011;52986;44.028;20.466;2023-04-07T13:29:35;37.35;;;16.77;;
66179;SDS011;52986;44.028;20.466;2023-04-07T13:32:18;30.45;;;15.05;;
66179;SDS011;52986;44.028;20.466;2023-04-07T13:34:43;31.27;;;15.20;;
66179;SDS011;52986;44.028;20.466;2023-04-07T13:37:09;24.73;;;12.32;;
66179;SDS011;52986;44.028;20.466;2023-04-07T13:39:35;37.45;;;21.27;;
66179;SDS011;52986;44.028;20.466;2023-04-07T13:42:00;36.08;;;16.88;;
66179;SDS011;52986;44.028;20.466;2023-04-07T13:44:26;30.00;;;15.57;;
66179;SDS011;52986;44.028;20.466;2023-04-07T13:46:52;29.20;;;14.57;;
66179;SDS011;52986;44.028;20.466;2023-04-07T13:49:18;29.80;;;15.68;;
66179;SDS011;52986;44.028;20.466;2023-04-07T13:51:44;29.55;;;14.20;;
66179;SDS011;52986;44.028;20.466;2023-04-07T13:54:10;27.40;;;14.68;;
66179;SDS011;52986;44.028;20.466;2023-04-07T13:56:35;39.63;;;16.60;;
66179;SDS011;52986;44.028;20.466;2023-04-07T13:59:02;28.90;;;14.68;;
66179;SDS011;52986;44.028;20.466;2023-04-07T14:01:29;28.23;;;13.98;;
66179;SDS011;52986;44.028;20.466;2023-04-07T14:03:54;28.02;;;13.43;;
66179;SDS011;52986;44.028;20.466;2023-04-07T14:06:19;32.15;;;14.63;;
66179;SDS011;52986;44.028;20.466;2023-04-07T14:08:48;33.20;;;16.10;;
66179;SDS011;52986;44.028;20.466;2023-04-07T14:11:15;35.58;;;14.82;;
66179;SDS011;52986;44.028;20.466;2023-04-07T14:13:46;28.75;;;13.50;;
66179;SDS011;52986;44.028;20.466;2023-04-07T14:16:11;24.70;;;12.40;;
66179;SDS011;52986;44.028;20.466;2023-04-07T14:18:37;27.02;;;13.20;;
66179;SDS011;52986;44.028;20.466;2023-04-07T14:21:03;22.83;;;11.23;;
66179;SDS011;52986;44.028;20.466;2023-04-07T14:23:29;23.00;;;10.98;;
66179;SDS011;52986;44.028;20.466;2023-04-07T14:25:56;23.17;;;11.60;;
66179;SDS011;52986;44.028;20.466;2023-04-07T14:28:21;27.02;;;13.25;;
66179;SDS011;52986;44.028;20.466;2023-04-07T14:30:47;32.90;;;14.27;;
66179;SDS011;52986;44.028;20.466;2023-04-07T14:33:12;30.83;;;13.20;;
66179;SDS011;52986;44.028;20.466;2023-04-07T14:35:38;26.40;;;11.25;;
66179;SDS011;52986;44.028;20.466;2023-04-07T14:38:03;23.08;;;11.20;;
66179;SDS011;52986;44.028;20.466;2023-04-07T14:40:29;23.45;;;11.25;;
66179;SDS011;52986;44.028;20.466;2023-04-07T14:42:55;22.33;;;10.80;;
66179;SDS011;52986;44.028;20.466;2023-04-07T14:45:22;22.73;;;11.27;;
66179;SDS011;52986;44.028;20.466;2023-04-07T14:47:47;20.40;;;11.02;;